createdAt,value
2018-07-20T00:01:24.677Z,21.20
2018-07-20T00:03:52.865Z,21.10
2018-07-20T00:06:21.047Z,21.00
2018-07-20T00:08:49.263Z,21.00
2018-07-20T00:11:17.491Z,20.90
2018-07-20T00:13:45.705Z,20.80
2018-07-20T00:16:13.952Z,20.70
2018-07-20T00:18:42.497Z,20.60
2018-07-20T00:21:10.709Z,20.50
2018-07-20T00:23:38.918Z,20.40
2018-07-20T00:26:07.663Z,20.30
2018-07-20T00:28:35.871Z,20.30
2018-07-20T00:31:04.081Z,20.20
2018-07-20T00:33:32.572Z,20.20
2018-07-20T00:36:00.976Z,20.10
2018-07-20T00:38:29.177Z,20.10
2018-07-20T00:40:57.363Z,20.10
2018-07-20T00:43:25.597Z,20.00
2018-07-20T00:45:53.835Z,20.00
2018-07-20T00:48:22.119Z,19.90
2018-07-20T00:50:50.400Z,20.00
2018-07-20T00:53:18.588Z,20.00
2018-07-20T00:55:46.787Z,19.90
2018-07-20T00:58:15.032Z,19.90
2018-07-20T01:00:43.239Z,19.90
2018-07-20T01:03:11.446Z,19.80
2018-07-20T01:05:39.624Z,19.80
2018-07-20T01:08:07.927Z,19.70
2018-07-20T01:10:36.131Z,19.70
2018-07-20T01:13:04.338Z,19.60
2018-07-20T01:15:32.527Z,19.50
2018-07-20T01:18:00.779Z,19.50
2018-07-20T01:20:28.991Z,19.40
2018-07-20T01:22:57.181Z,19.40
2018-07-20T01:25:25.366Z,19.40
2018-07-20T01:27:54.317Z,19.40
2018-07-20T01:30:22.513Z,19.30
2018-07-20T01:32:50.724Z,19.30
2018-07-20T01:35:19.160Z,19.20
2018-07-20T01:37:47.379Z,19.20
2018-07-20T01:40:15.601Z,19.20
2018-07-20T01:42:43.808Z,19.10
2018-07-20T01:45:12.289Z,19.10
2018-07-20T01:47:40.465Z,19.10
2018-07-20T01:50:08.963Z,19.10
2018-07-20T01:52:37.225Z,19.10
2018-07-20T01:55:05.425Z,19.10
2018-07-20T01:57:33.641Z,19.00
2018-07-20T02:00:01.846Z,19.00
2018-07-20T02:02:30.046Z,19.00
2018-07-20T02:04:58.217Z,19.00
2018-07-20T02:07:26.425Z,18.90
2018-07-20T02:09:54.695Z,18.90
2018-07-20T02:12:22.888Z,18.90
2018-07-20T02:14:51.080Z,18.90
2018-07-20T02:17:19.281Z,18.80
2018-07-20T02:22:15.598Z,18.80
2018-07-20T02:24:43.786Z,18.80
2018-07-20T02:27:12.006Z,18.80
2018-07-20T02:32:08.162Z,18.80
2018-07-20T02:34:36.670Z,18.80
2018-07-20T02:37:04.929Z,18.70
2018-07-20T02:39:33.184Z,18.70
2018-07-20T02:42:01.384Z,18.70
2018-07-20T02:44:29.578Z,18.70
2018-07-20T02:46:57.771Z,18.70
2018-07-20T02:49:26.030Z,18.70
2018-07-20T02:51:54.284Z,18.60
2018-07-20T02:54:22.512Z,18.60
2018-07-20T02:56:50.700Z,18.50
2018-07-20T02:59:18.940Z,18.50
2018-07-20T03:01:47.162Z,18.50
2018-07-20T03:04:15.332Z,18.50
2018-07-20T03:06:43.530Z,18.50
2018-07-20T03:09:12.964Z,18.50
2018-07-20T03:11:41.586Z,18.50
2018-07-20T03:14:09.952Z,18.50
2018-07-20T03:16:38.206Z,18.50
2018-07-20T03:19:06.855Z,18.50
2018-07-20T03:21:35.126Z,18.40
2018-07-20T03:24:03.309Z,18.40
2018-07-20T03:26:31.502Z,18.40
2018-07-20T03:28:59.718Z,18.40
2018-07-20T03:31:27.914Z,18.40
2018-07-20T03:33:56.114Z,18.40
2018-07-20T03:36:24.480Z,18.30
2018-07-20T03:38:52.646Z,18.30
2018-07-20T03:41:20.842Z,18.30
2018-07-20T03:46:17.354Z,18.20
2018-07-20T03:48:45.622Z,18.20
2018-07-20T03:51:13.814Z,18.20
2018-07-20T03:53:42.025Z,18.10
2018-07-20T03:56:10.210Z,18.10
2018-07-20T03:58:38.446Z,18.10
2018-07-20T04:01:06.868Z,18.10
2018-07-20T04:03:35.037Z,18.10
2018-07-20T04:06:03.243Z,18.10
2018-07-20T04:10:59.411Z,18.00
2018-07-20T04:13:27.634Z,18.00
2018-07-20T04:15:55.810Z,17.90
2018-07-20T04:18:24.080Z,17.90
2018-07-20T04:20:52.282Z,17.90
2018-07-20T04:23:20.528Z,17.90
2018-07-20T04:25:48.714Z,17.90
2018-07-20T04:28:16.910Z,17.80
2018-07-20T04:30:45.134Z,17.80
2018-07-20T04:33:13.326Z,17.80
2018-07-20T04:35:41.596Z,17.80
2018-07-20T04:38:09.843Z,17.80
2018-07-20T04:40:38.032Z,17.90
2018-07-20T04:43:06.376Z,17.90
2018-07-20T04:45:34.591Z,17.90
2018-07-20T04:48:03.034Z,17.90
2018-07-20T04:50:31.234Z,17.90
2018-07-20T04:52:59.428Z,18.00
2018-07-20T04:57:55.644Z,18.10
2018-07-20T05:00:23.942Z,18.10
2018-07-20T05:02:52.162Z,18.10
2018-07-20T05:05:20.362Z,18.20
2018-07-20T05:07:48.634Z,18.30
2018-07-20T05:10:16.902Z,18.30
2018-07-20T05:15:13.120Z,18.50
2018-07-20T05:17:41.306Z,18.60
2018-07-20T05:20:09.522Z,18.70
2018-07-20T05:22:37.718Z,18.80
2018-07-20T05:25:06.038Z,18.90
2018-07-20T05:27:34.240Z,19.00
2018-07-20T05:30:02.427Z,19.10
2018-07-20T05:32:30.676Z,19.20
2018-07-20T05:34:58.857Z,19.20
2018-07-20T05:37:27.034Z,19.30
2018-07-20T05:39:55.296Z,19.40
2018-07-20T05:42:23.487Z,19.40
2018-07-20T05:44:51.692Z,19.30
2018-07-20T05:47:19.884Z,19.30
2018-07-20T05:49:48.114Z,19.20
2018-07-20T05:52:16.324Z,19.30
2018-07-20T05:54:44.532Z,19.30
2018-07-20T05:57:12.728Z,19.40
2018-07-20T05:59:40.914Z,19.50
2018-07-20T06:02:09.112Z,19.60
2018-07-20T06:04:37.315Z,19.60
2018-07-20T06:07:05.678Z,19.70
2018-07-20T06:09:33.858Z,19.70
2018-07-20T06:12:02.042Z,19.80
2018-07-20T06:14:30.246Z,19.90
2018-07-20T06:16:58.434Z,19.90
2018-07-20T06:19:26.627Z,20.00
2018-07-20T06:24:22.783Z,20.20
2018-07-20T06:29:18.991Z,20.40
2018-07-20T06:31:47.166Z,20.50
2018-07-20T06:34:15.362Z,20.70
2018-07-20T06:36:43.566Z,20.80
2018-07-20T06:39:12.761Z,20.90
2018-07-20T06:41:41.280Z,21.10
2018-07-20T06:44:09.462Z,21.20
2018-07-20T06:46:37.990Z,21.30
2018-07-20T06:49:07.031Z,21.40
2018-07-20T06:51:35.907Z,21.60
2018-07-20T06:54:04.240Z,21.60
2018-07-20T06:56:32.422Z,21.70
2018-07-20T06:59:00.753Z,21.90
2018-07-20T07:01:28.950Z,22.00
2018-07-20T07:03:57.146Z,22.10
2018-07-20T07:06:25.368Z,22.20
2018-07-20T07:08:53.620Z,22.40
2018-07-20T07:11:21.807Z,22.60
2018-07-20T07:13:50.009Z,22.80
2018-07-20T07:16:18.239Z,23.10
2018-07-20T07:18:46.538Z,23.40
2018-07-20T07:21:14.766Z,23.60
2018-07-20T07:23:43.045Z,23.80
2018-07-20T07:26:11.158Z,24.00
2018-07-20T07:28:39.356Z,24.20
2018-07-20T07:31:07.757Z,24.40
2018-07-20T07:33:35.955Z,24.60
2018-07-20T07:36:04.153Z,24.70
2018-07-20T07:38:32.382Z,24.80
2018-07-20T07:41:00.571Z,24.90
2018-07-20T07:43:28.779Z,25.00
2018-07-20T07:45:56.971Z,25.10
2018-07-20T07:50:53.135Z,25.50
2018-07-20T07:53:21.349Z,25.70
2018-07-20T07:55:49.527Z,25.90
2018-07-20T07:58:17.753Z,26.00
2018-07-20T08:00:45.947Z,26.10
2018-07-20T08:03:14.169Z,26.10
2018-07-20T08:05:42.331Z,26.20
2018-07-20T08:08:10.624Z,26.30
2018-07-20T08:10:38.821Z,26.40
2018-07-20T08:13:07.027Z,26.50
2018-07-20T08:15:35.221Z,26.60
2018-07-20T08:18:03.473Z,26.70
2018-07-20T08:20:31.671Z,26.70
2018-07-20T08:22:59.877Z,26.80
2018-07-20T08:27:56.216Z,27.00
2018-07-20T08:30:24.399Z,27.10
2018-07-20T08:32:52.631Z,27.20
2018-07-20T08:35:20.835Z,27.30
2018-07-20T08:37:49.093Z,27.40
2018-07-20T08:40:17.367Z,27.50
2018-07-20T08:42:45.602Z,27.60
2018-07-20T08:45:13.819Z,27.70
2018-07-20T08:47:42.019Z,27.70
2018-07-20T08:50:10.230Z,27.70
2018-07-20T08:52:38.423Z,27.80
2018-07-20T08:57:34.581Z,27.90
2018-07-20T09:02:31.750Z,28.00
2018-07-20T09:04:59.950Z,28.00
2018-07-20T09:07:28.139Z,28.00
2018-07-20T09:09:56.354Z,28.10
2018-07-20T09:12:24.560Z,28.20
2018-07-20T09:14:52.762Z,28.50
2018-07-20T09:17:21.048Z,28.70
2018-07-20T09:19:49.266Z,29.00
2018-07-20T09:22:17.434Z,29.20
2018-07-20T09:24:45.904Z,29.20
2018-07-20T09:27:14.124Z,29.30
2018-07-20T09:29:42.312Z,29.30
2018-07-20T09:32:10.542Z,29.30
2018-07-20T09:34:38.878Z,29.40
2018-07-20T09:37:07.332Z,29.50
2018-07-20T09:39:35.516Z,29.80
2018-07-20T09:42:03.974Z,30.00
2018-07-20T09:44:32.190Z,30.20
2018-07-20T09:47:00.346Z,30.30
2018-07-20T09:49:28.534Z,30.60
2018-07-20T09:51:56.727Z,30.80
2018-07-20T09:54:24.938Z,31.20
2018-07-20T09:56:53.135Z,31.60
2018-07-20T09:59:21.418Z,31.90
2018-07-20T10:01:49.562Z,32.00
2018-07-20T10:04:17.776Z,32.20
2018-07-20T10:06:45.974Z,32.70
2018-07-20T10:09:14.276Z,33.30
2018-07-20T10:11:42.464Z,33.90
2018-07-20T10:14:10.665Z,34.50
2018-07-20T10:16:38.884Z,35.40
2018-07-20T10:19:07.199Z,36.00
2018-07-20T10:21:35.406Z,36.50
2018-07-20T10:24:03.684Z,36.70
2018-07-20T10:26:32.216Z,37.00
2018-07-20T10:29:00.848Z,37.60
2018-07-20T10:31:29.034Z,38.10
2018-07-20T10:33:57.238Z,38.20
2018-07-20T10:36:25.430Z,38.60
2018-07-20T10:38:53.672Z,39.20
2018-07-20T10:41:21.860Z,39.50
2018-07-20T10:43:50.060Z,39.70
2018-07-20T10:46:18.444Z,40.00
2018-07-20T10:48:46.740Z,40.40
2018-07-20T10:51:14.940Z,40.40
2018-07-20T10:53:43.255Z,40.30
2018-07-20T10:56:11.653Z,40.50
2018-07-20T11:01:07.818Z,40.50
2018-07-20T11:03:36.036Z,39.80
2018-07-20T11:06:04.254Z,39.50
2018-07-20T11:08:32.492Z,39.50
2018-07-20T11:11:00.712Z,39.70
2018-07-20T11:13:28.884Z,40.10
2018-07-20T11:15:57.106Z,40.60
2018-07-20T11:18:25.365Z,41.00
2018-07-20T11:20:53.578Z,41.30
2018-07-20T11:23:21.787Z,41.20
2018-07-20T11:25:50.167Z,41.00
2018-07-20T11:28:18.396Z,40.70
2018-07-20T11:30:46.580Z,40.60
2018-07-20T11:33:14.762Z,40.80
2018-07-20T11:35:42.987Z,40.80
2018-07-20T11:38:11.239Z,40.60
2018-07-20T11:40:39.548Z,40.50
2018-07-20T11:43:08.150Z,40.20
2018-07-20T11:45:36.326Z,40.30
2018-07-20T11:48:04.586Z,40.70
2018-07-20T11:50:32.896Z,41.40
2018-07-20T11:53:01.138Z,41.60
2018-07-20T11:55:29.324Z,42.10
2018-07-20T11:57:57.662Z,42.40
2018-07-20T12:00:25.884Z,42.60
2018-07-20T12:02:54.074Z,42.80
2018-07-20T12:05:22.289Z,42.80
2018-07-20T12:07:50.791Z,42.40
2018-07-20T12:10:18.994Z,42.30
2018-07-20T12:12:47.198Z,42.00
2018-07-20T12:15:15.393Z,41.80
2018-07-20T12:17:43.590Z,42.00
2018-07-20T12:20:11.799Z,42.00
2018-07-20T12:22:39.980Z,41.90
2018-07-20T12:25:08.198Z,42.10
2018-07-20T12:27:36.398Z,42.10
2018-07-20T12:30:05.310Z,42.70
2018-07-20T12:32:33.492Z,43.40
2018-07-20T12:37:29.678Z,44.20
2018-07-20T12:39:57.856Z,44.10
2018-07-20T12:42:26.072Z,43.80
2018-07-20T12:44:54.264Z,43.40
2018-07-20T12:47:22.486Z,43.50
2018-07-20T12:49:50.711Z,43.70
2018-07-20T12:52:18.900Z,43.70
2018-07-20T12:54:47.120Z,43.50
2018-07-20T12:57:15.292Z,43.70
2018-07-20T12:59:43.490Z,43.70
2018-07-20T13:02:11.738Z,43.30
2018-07-20T13:04:39.931Z,42.90
2018-07-20T13:09:36.042Z,43.00
2018-07-20T13:12:04.408Z,43.70
2018-07-20T13:14:32.480Z,43.70
2018-07-20T13:17:00.674Z,43.80
2018-07-20T13:19:28.920Z,43.80
2018-07-20T13:21:57.120Z,43.90
2018-07-20T13:24:25.327Z,44.10
2018-07-20T13:26:53.510Z,44.00
2018-07-20T13:29:21.707Z,43.90
2018-07-20T13:31:49.901Z,44.00
2018-07-20T13:34:18.079Z,44.20
2018-07-20T13:36:46.270Z,44.30
2018-07-20T13:39:14.510Z,43.90
2018-07-20T13:41:42.721Z,44.00
2018-07-20T13:44:10.914Z,44.40
2018-07-20T13:46:39.126Z,44.70
2018-07-20T13:49:07.340Z,44.70
2018-07-20T13:54:03.645Z,43.60
2018-07-20T13:56:31.845Z,43.10
2018-07-20T13:59:00.113Z,42.80
2018-07-20T14:01:28.328Z,42.70
2018-07-20T14:06:24.478Z,42.80
2018-07-20T14:08:52.682Z,42.60
2018-07-20T14:11:20.973Z,42.20
2018-07-20T14:13:49.139Z,41.50
2018-07-20T14:16:17.359Z,41.30
2018-07-20T14:18:45.551Z,41.60
2018-07-20T14:21:14.019Z,41.90
2018-07-20T14:23:42.264Z,42.30
2018-07-20T14:26:10.447Z,42.60
2018-07-20T14:28:38.702Z,42.80
2018-07-20T14:31:07.237Z,42.60
2018-07-20T14:33:35.451Z,42.10
2018-07-20T14:36:03.647Z,41.20
2018-07-20T14:38:31.929Z,39.80
2018-07-20T14:41:00.217Z,38.70
2018-07-20T14:43:28.425Z,37.80
2018-07-20T14:45:56.631Z,37.20
2018-07-20T14:48:24.859Z,36.80
2018-07-20T14:50:53.070Z,36.50
2018-07-20T14:53:21.268Z,36.10
2018-07-20T14:55:49.461Z,35.80
2018-07-20T14:58:17.733Z,35.60
2018-07-20T15:00:45.910Z,35.40
2018-07-20T15:03:14.162Z,35.40
2018-07-20T15:05:42.295Z,35.50
2018-07-20T15:08:10.543Z,35.60
2018-07-20T15:10:38.812Z,35.70
2018-07-20T15:13:06.970Z,35.80
2018-07-20T15:15:35.163Z,35.90
2018-07-20T15:18:03.457Z,36.00
2018-07-20T15:20:31.640Z,36.10
2018-07-20T15:22:59.854Z,36.10
2018-07-20T15:25:28.070Z,36.00
2018-07-20T15:27:56.667Z,35.90
2018-07-20T15:30:25.053Z,35.80
2018-07-20T15:32:53.248Z,35.70
2018-07-20T15:35:21.452Z,35.60
2018-07-20T15:37:50.224Z,35.50
2018-07-20T15:40:18.450Z,35.30
2018-07-20T15:42:46.642Z,35.00
2018-07-20T15:47:43.121Z,34.60
2018-07-20T15:50:11.327Z,34.50
2018-07-20T15:55:07.727Z,34.20
2018-07-20T16:00:04.036Z,33.80
2018-07-20T16:02:32.166Z,33.70
2018-07-20T16:05:00.397Z,33.60
2018-07-20T16:07:28.602Z,33.60
2018-07-20T16:09:56.811Z,33.40
2018-07-20T16:12:25.011Z,33.30
2018-07-20T16:14:53.196Z,33.10
2018-07-20T16:17:21.412Z,33.10
2018-07-20T16:19:49.621Z,33.00
2018-07-20T16:24:45.967Z,33.00
2018-07-20T16:27:14.153Z,33.00
2018-07-20T16:29:42.379Z,33.00
2018-07-20T16:32:10.555Z,33.00
2018-07-20T16:34:38.753Z,33.00
2018-07-20T16:37:06.991Z,33.00
2018-07-20T16:39:35.195Z,33.00
2018-07-20T16:42:03.402Z,33.00
2018-07-20T16:44:31.637Z,33.00
2018-07-20T16:46:59.833Z,33.00
2018-07-20T16:49:28.046Z,33.10
2018-07-20T16:51:56.267Z,33.10
2018-07-20T16:54:24.483Z,33.10
2018-07-20T16:56:52.687Z,33.00
2018-07-20T16:59:20.863Z,33.00
2018-07-20T17:01:49.136Z,33.00
2018-07-20T17:04:17.330Z,33.00
2018-07-20T17:06:45.521Z,33.00
2018-07-20T17:09:13.749Z,32.90
2018-07-20T17:11:42.088Z,32.80
2018-07-20T17:14:10.381Z,32.80
2018-07-20T17:16:38.567Z,32.80
2018-07-20T17:19:06.778Z,32.80
2018-07-20T17:21:34.989Z,32.80
2018-07-20T17:24:03.182Z,32.90
2018-07-20T17:26:31.373Z,32.90
2018-07-20T17:28:59.580Z,32.80
2018-07-20T17:31:27.756Z,32.80
2018-07-20T17:33:56.018Z,32.80
2018-07-20T17:38:52.240Z,32.80
2018-07-20T17:41:20.424Z,32.80
2018-07-20T17:43:48.603Z,32.70
2018-07-20T17:46:16.817Z,32.60
2018-07-20T17:48:45.024Z,32.60
2018-07-20T17:51:13.234Z,32.50
2018-07-20T17:53:41.640Z,32.40
2018-07-20T17:56:09.854Z,32.20
2018-07-20T17:58:38.102Z,32.10
2018-07-20T18:01:06.404Z,32.00
2018-07-20T18:03:34.616Z,31.90
2018-07-20T18:06:03.113Z,31.80
2018-07-20T18:08:31.294Z,31.80
2018-07-20T18:10:59.486Z,31.70
2018-07-20T18:13:27.668Z,31.80
2018-07-20T18:15:55.862Z,31.90
2018-07-20T18:18:24.064Z,31.90
2018-07-20T18:20:52.264Z,31.70
2018-07-20T18:23:20.485Z,31.70
2018-07-20T18:25:48.678Z,31.50
2018-07-20T18:28:16.964Z,31.40
2018-07-20T18:30:45.152Z,31.30
2018-07-20T18:33:13.382Z,31.20
2018-07-20T18:35:41.584Z,31.00
2018-07-20T18:38:09.998Z,31.00
2018-07-20T18:40:38.212Z,30.80
2018-07-20T18:43:06.388Z,30.70
2018-07-20T18:45:34.574Z,30.60
2018-07-20T18:48:02.833Z,30.50
2018-07-20T18:50:31.344Z,30.40
2018-07-20T18:52:59.631Z,30.30
2018-07-20T18:55:27.819Z,30.20
2018-07-20T18:57:56.247Z,30.10
2018-07-20T19:00:24.442Z,30.00
2018-07-20T19:02:52.639Z,29.90
2018-07-20T19:05:20.872Z,29.80
2018-07-20T19:07:49.073Z,29.70
2018-07-20T19:12:45.352Z,29.60
2018-07-20T19:15:13.572Z,29.50
2018-07-20T19:17:41.780Z,29.50
2018-07-20T19:20:09.968Z,29.40
2018-07-20T19:22:38.271Z,29.40
2018-07-20T19:25:06.484Z,29.40
2018-07-20T19:27:34.687Z,29.30
2018-07-20T19:30:02.915Z,29.30
2018-07-20T19:32:31.121Z,29.30
2018-07-20T19:34:59.353Z,29.30
2018-07-20T19:39:55.470Z,29.10
2018-07-20T19:42:23.686Z,29.00
2018-07-20T19:44:51.915Z,28.90
2018-07-20T19:47:20.088Z,28.90
2018-07-20T19:49:48.296Z,28.90
2018-07-20T19:52:16.542Z,28.80
2018-07-20T19:54:44.698Z,28.80
2018-07-20T19:57:12.894Z,28.80
2018-07-20T19:59:41.120Z,28.80
2018-07-20T20:02:09.322Z,28.80
2018-07-20T20:04:37.534Z,28.70
2018-07-20T20:07:05.954Z,28.70
2018-07-20T20:09:34.155Z,28.60
2018-07-20T20:14:30.392Z,28.50
2018-07-20T20:16:58.625Z,28.50
2018-07-20T20:19:26.826Z,28.50
2018-07-20T20:21:55.047Z,28.40
2018-07-20T20:26:51.218Z,28.30
2018-07-20T20:29:19.401Z,28.20
2018-07-20T20:31:47.597Z,28.20
2018-07-20T20:34:15.794Z,28.20
2018-07-20T20:36:44.017Z,28.10
2018-07-20T20:39:13.329Z,28.10
2018-07-20T20:41:41.694Z,28.10
2018-07-20T20:44:10.168Z,28.00
2018-07-20T20:46:38.762Z,28.00
2018-07-20T20:49:07.094Z,27.90
2018-07-20T20:54:03.251Z,27.80
2018-07-20T20:56:31.474Z,27.80
2018-07-20T20:58:59.704Z,27.70
2018-07-20T21:06:23.783Z,27.50
2018-07-20T21:08:51.986Z,27.50
2018-07-20T21:11:20.200Z,27.50
2018-07-20T21:13:48.407Z,27.40
2018-07-20T21:16:16.624Z,27.40
2018-07-20T21:18:45.007Z,27.30
2018-07-20T21:21:13.226Z,27.20
2018-07-20T21:23:41.412Z,27.20
2018-07-20T21:26:09.880Z,27.10
2018-07-20T21:28:38.072Z,27.00
2018-07-20T21:31:06.504Z,27.00
2018-07-20T21:36:02.828Z,26.90
2018-07-20T21:38:31.046Z,26.80
2018-07-20T21:40:59.252Z,26.80
2018-07-20T21:43:27.450Z,26.70
2018-07-20T21:45:55.685Z,26.70
2018-07-20T21:48:23.948Z,26.60
2018-07-20T21:50:52.186Z,26.60
2018-07-20T21:53:20.370Z,26.50
2018-07-20T21:55:48.566Z,26.40
2018-07-20T21:58:16.858Z,26.30
2018-07-20T22:00:45.179Z,26.30
2018-07-20T22:03:13.384Z,26.30
2018-07-20T22:05:41.590Z,26.20
2018-07-20T22:08:09.841Z,26.20
2018-07-20T22:10:38.043Z,26.10
2018-07-20T22:13:06.313Z,26.10
2018-07-20T22:15:34.573Z,26.00
2018-07-20T22:18:02.835Z,25.90
2018-07-20T22:20:31.141Z,25.80
2018-07-20T22:22:59.322Z,25.70
2018-07-20T22:25:27.512Z,25.60
2018-07-20T22:27:56.057Z,25.60
2018-07-20T22:30:24.245Z,25.60
2018-07-20T22:32:52.437Z,25.60
2018-07-20T22:35:20.672Z,25.60
2018-07-20T22:37:48.883Z,25.60
2018-07-20T22:40:17.082Z,25.60
2018-07-20T22:42:45.266Z,25.60
2018-07-20T22:45:13.508Z,25.60
2018-07-20T22:47:41.871Z,25.60
2018-07-20T22:50:10.128Z,25.60
2018-07-20T22:52:38.348Z,25.60
2018-07-20T22:55:06.547Z,25.50
2018-07-20T22:57:34.812Z,25.50
2018-07-20T23:00:03.023Z,25.40
2018-07-20T23:02:31.196Z,25.40
2018-07-20T23:04:59.400Z,25.40
2018-07-20T23:07:27.598Z,25.30
2018-07-20T23:09:55.799Z,25.20
2018-07-20T23:12:24.011Z,25.10
2018-07-20T23:14:52.203Z,25.00
2018-07-20T23:17:20.390Z,25.00
2018-07-20T23:19:48.651Z,24.90
2018-07-20T23:22:16.863Z,24.80
2018-07-20T23:24:45.113Z,24.80
2018-07-20T23:27:13.284Z,24.80
2018-07-20T23:29:41.483Z,24.80
2018-07-20T23:32:09.671Z,24.90
2018-07-20T23:34:37.885Z,24.80
2018-07-20T23:37:06.103Z,24.80
2018-07-20T23:39:34.314Z,24.80
2018-07-20T23:42:02.631Z,24.80
2018-07-20T23:44:30.841Z,24.80
2018-07-20T23:46:59.056Z,24.70
2018-07-20T23:49:27.246Z,24.70
2018-07-20T23:51:55.432Z,24.60
2018-07-20T23:54:23.651Z,24.60
2018-07-20T23:56:51.834Z,24.50
2018-07-20T23:59:20.025Z,24.50
